Time;durP1;ratioP1;P1;durP2;ratioP2;P2;SDS_P1;SDS_P2;PMS_P1;PMS_P2;Temp;Humidity;BMP_temperature;BMP_pressure;BME280_temperature;BME280_humidity;BME280_pressure;Samples;Min_cycle;Max_cycle;Signal;HPM_P1;HPM_P2
2021/01/28 00:00:39;;;;;;;151.20;46.40;;;-3.60;99.90;;;;;;4361070;28;662028;-63
2021/01/28 00:03:26;;;;;;;123.57;39.90;;;-3.60;99.90;;;;;;4343984;28;662556;-62
2021/01/28 00:06:13;;;;;;;154.73;45.90;;;-3.60;99.90;;;;;;4359395;28;661828;-61
2021/01/28 00:09:00;;;;;;;158.88;49.00;;;-3.70;99.90;;;;;;4341483;28;661721;-62
2021/01/28 00:11:48;;;;;;;167.30;50.83;;;-3.70;99.90;;;;;;4372116;28;662600;-62
2021/01/28 00:14:35;;;;;;;155.90;48.23;;;-3.70;99.90;;;;;;4341040;28;661901;-63
2021/01/28 00:17:22;;;;;;;148.73;45.67;;;-3.70;99.90;;;;;;4378132;28;662668;-60
2021/01/28 00:20:13;;;;;;;147.23;46.60;;;-3.70;99.90;;;;;;4373930;28;661725;-63
2021/01/28 00:23:00;;;;;;;141.97;45.67;;;-3.70;99.90;;;;;;4347973;28;661536;-62
2021/01/28 00:25:47;;;;;;;139.97;45.80;;;-3.70;99.90;;;;;;4367792;28;662991;-61
2021/01/28 00:28:35;;;;;;;145.57;44.27;;;-3.70;99.90;;;;;;4350197;28;661725;-62
2021/01/28 00:31:22;;;;;;;133.23;42.03;;;-3.50;99.90;;;;;;4371331;28;662423;-62
2021/01/28 00:34:09;;;;;;;132.77;40.60;;;-3.60;99.90;;;;;;4357285;28;661756;-63
2021/01/28 00:36:56;;;;;;;123.95;38.22;;;-3.60;99.90;;;;;;4385964;28;663050;-61
2021/01/28 00:39:43;;;;;;;152.23;44.40;;;-3.70;99.90;;;;;;4377752;28;661869;-62
2021/01/28 00:42:30;;;;;;;129.18;40.17;;;-3.60;99.90;;;;;;4338751;28;662217;-62
2021/01/28 00:45:19;;;;;;;133.10;38.97;;;-3.70;99.90;;;;;;4381876;28;663441;-62
2021/01/28 00:48:07;;;;;;;111.23;36.87;;;-3.60;99.90;;;;;;4336731;28;662911;-62
2021/01/28 00:50:55;;;;;;;128.23;40.43;;;-3.60;99.90;;;;;;4357170;28;661591;-63
2021/01/28 00:53:42;;;;;;;120.13;39.33;;;-3.60;99.90;;;;;;4376012;28;662787;-61
2021/01/28 00:56:29;;;;;;;123.00;40.58;;;-3.60;99.90;;;;;;4362934;28;661780;-63
2021/01/28 00:59:16;;;;;;;129.73;42.65;;;-3.60;99.90;;;;;;4381068;28;661460;-61
2021/01/28 01:02:04;;;;;;;138.43;39.90;;;-3.60;99.90;;;;;;4380080;28;662054;-62
2021/01/28 01:04:51;;;;;;;120.43;38.90;;;-3.60;99.90;;;;;;4346908;28;663139;-61
2021/01/28 01:07:38;;;;;;;132.15;41.10;;;-3.60;99.90;;;;;;4358052;28;662223;-62
2021/01/28 01:10:30;;;;;;;113.65;38.35;;;-3.70;99.90;;;;;;4343271;28;663034;-61
2021/01/28 01:13:18;;;;;;;128.57;40.63;;;-3.70;99.90;;;;;;4342320;28;663506;-62
2021/01/28 01:16:06;;;;;;;123.60;38.20;;;-3.80;99.90;;;;;;4344745;28;661728;-61
2021/01/28 01:18:54;;;;;;;124.83;39.00;;;-3.80;99.90;;;;;;4365082;28;661350;-61
2021/01/28 01:21:41;;;;;;;115.25;37.45;;;-3.90;99.90;;;;;;4342809;28;661949;-61
2021/01/28 01:24:28;;;;;;;107.23;35.50;;;-3.90;99.90;;;;;;4366356;28;661946;-62
2021/01/28 01:27:15;;;;;;;117.10;38.63;;;-4.00;99.90;;;;;;4346759;28;662026;-61
2021/01/28 01:30:03;;;;;;;131.67;44.23;;;-4.10;99.90;;;;;;4372028;28;662932;-61
2021/01/28 01:32:50;;;;;;;118.20;38.33;;;-4.10;99.90;;;;;;4343186;28;661804;-61
2021/01/28 01:35:38;;;;;;;122.17;41.33;;;-4.10;99.90;;;;;;4365102;28;663103;-62
2021/01/28 01:38:25;;;;;;;126.93;41.20;;;-4.20;99.90;;;;;;4339578;28;661707;-61
2021/01/28 01:41:12;;;;;;;145.87;48.17;;;-4.20;99.90;;;;;;4348031;28;663575;-61
2021/01/28 01:44:00;;;;;;;136.90;44.03;;;-4.30;99.90;;;;;;4360435;28;661790;-63
2021/01/28 01:46:48;;;;;;;158.53;48.67;;;-4.50;99.90;;;;;;4370278;28;662804;-62
2021/01/28 01:49:35;;;;;;;160.17;47.50;;;-4.60;99.90;;;;;;4342339;28;662185;-62
2021/01/28 01:52:23;;;;;;;162.47;52.43;;;-4.80;99.90;;;;;;4365062;28;662198;-61
2021/01/28 01:55:10;;;;;;;155.30;50.33;;;-4.90;99.90;;;;;;4346431;28;661667;-61
2021/01/28 01:57:57;;;;;;;168.67;51.33;;;-5.10;99.90;;;;;;4365231;28;662889;-61
2021/01/28 02:00:44;;;;;;;160.83;50.60;;;-5.20;99.90;;;;;;4346204;28;661659;-62
2021/01/28 02:03:32;;;;;;;165.07;52.30;;;-5.30;99.90;;;;;;4375755;28;662470;-62
2021/01/28 02:06:23;;;;;;;169.47;51.47;;;-5.40;99.90;;;;;;4362237;28;661874;-63
2021/01/28 02:09:14;;;;;;;164.27;50.78;;;-5.50;99.90;;;;;;4343604;28;661998;-61
2021/01/28 02:12:00;;;;;;;152.73;46.23;;;-5.60;99.90;;;;;;4346753;28;662212;-62
2021/01/28 02:14:47;;;;;;;165.07;49.47;;;-5.70;99.90;;;;;;4340653;28;662049;-61
2021/01/28 02:17:34;;;;;;;153.33;48.17;;;-5.80;99.90;;;;;;4355562;28;661333;-61
2021/01/28 02:20:34;;;;;;;161.67;50.30;;;-5.80;99.90;;;;;;4361833;28;662903;-62
2021/01/28 02:23:29;;;;;;;154.97;48.10;;;-6.00;99.90;;;;;;4314009;28;662493;-61
2021/01/28 02:26:17;;;;;;;159.60;49.20;;;-6.10;99.90;;;;;;4318438;28;662157;-61
2021/01/28 02:29:05;;;;;;;156.37;49.03;;;-6.20;99.90;;;;;;4352262;28;661633;-62
2021/01/28 02:31:54;;;;;;;160.30;49.20;;;-6.30;99.90;;;;;;4357032;28;661776;-60
2021/01/28 02:34:42;;;;;;;154.97;49.20;;;-6.40;99.90;;;;;;4339031;28;663212;-61
2021/01/28 02:37:29;;;;;;;151.77;48.03;;;-6.40;99.90;;;;;;4374509;28;661979;-62
2021/01/28 02:40:17;;;;;;;161.40;48.83;;;-6.50;99.90;;;;;;4373048;28;661409;-61
2021/01/28 02:43:05;;;;;;;144.70;45.77;;;-6.60;99.90;;;;;;4363044;28;661875;-63
2021/01/28 02:46:00;;;;;;;168.87;51.73;;;-6.70;99.90;;;;;;4367645;28;662391;-61
2021/01/28 02:48:49;;;;;;;177.63;50.15;;;-6.80;99.90;;;;;;4338804;28;662156;-61
2021/01/28 02:51:36;;;;;;;152.40;49.30;;;-6.80;99.90;;;;;;4345062;28;663098;-61
2021/01/28 02:54:23;;;;;;;171.43;49.83;;;-6.90;99.90;;;;;;4367683;28;662004;-61
2021/01/28 02:57:10;;;;;;;156.57;46.70;;;-7.00;99.90;;;;;;4349935;28;661690;-61
2021/01/28 02:59:58;;;;;;;151.13;45.37;;;-7.10;99.90;;;;;;4373742;28;663150;-61
2021/01/28 03:02:45;;;;;;;149.93;43.83;;;-7.20;99.90;;;;;;4353070;28;661648;-62
2021/01/28 03:05:31;;;;;;;136.20;42.77;;;-7.20;99.90;;;;;;4368545;28;663039;-61
2021/01/28 03:08:20;;;;;;;142.27;43.63;;;-7.30;99.90;;;;;;4366717;28;662362;-62
2021/01/28 03:11:07;;;;;;;148.43;44.27;;;-7.30;99.90;;;;;;4359384;28;663094;-61
2021/01/28 03:13:54;;;;;;;147.40;42.83;;;-7.40;99.90;;;;;;4365659;28;661353;-63
2021/01/28 03:16:42;;;;;;;145.53;42.77;;;-7.50;99.90;;;;;;4367466;28;662372;-61
2021/01/28 03:19:29;;;;;;;130.75;41.97;;;-7.60;99.90;;;;;;4341443;28;661807;-62
2021/01/28 03:22:16;;;;;;;143.23;41.67;;;-7.60;99.90;;;;;;4371262;28;661753;-61
2021/01/28 03:25:04;;;;;;;133.40;41.40;;;-7.70;99.90;;;;;;4366971;28;662303;-62
2021/01/28 03:27:51;;;;;;;145.07;42.53;;;-7.70;99.90;;;;;;4338419;28;663956;-61
2021/01/28 03:30:40;;;;;;;147.20;41.45;;;-7.70;99.90;;;;;;4367876;28;662028;-62
2021/01/28 03:33:28;;;;;;;134.07;39.90;;;-7.80;99.90;;;;;;4333237;28;662754;-61
2021/01/28 03:36:15;;;;;;;126.55;39.05;;;-7.80;99.90;;;;;;4345268;28;661943;-61
2021/01/28 03:39:03;;;;;;;128.37;40.93;;;-7.90;99.90;;;;;;4351250;28;662694;-61
2021/01/28 03:41:50;;;;;;;120.80;38.60;;;-8.00;99.90;;;;;;4343215;28;661472;-62
2021/01/28 03:44:37;;;;;;;119.13;36.67;;;-8.00;99.90;;;;;;4376069;28;663084;-61
2021/01/28 03:47:24;;;;;;;116.43;35.73;;;-8.10;99.90;;;;;;4351302;28;662035;-62
2021/01/28 03:50:14;;;;;;;142.45;39.15;;;-8.10;99.90;;;;;;4358750;28;661683;-61
2021/01/28 03:53:01;;;;;;;126.93;40.15;;;-8.10;99.90;;;;;;4341388;28;662390;-61
2021/01/28 03:55:48;;;;;;;135.10;41.53;;;-8.10;99.90;;;;;;4374738;28;661973;-62
2021/01/28 03:58:35;;;;;;;122.15;39.28;;;-8.20;99.90;;;;;;4328612;28;662202;-61
2021/01/28 04:01:22;;;;;;;124.70;37.90;;;-8.20;99.90;;;;;;4352841;28;663486;-61
2021/01/28 04:04:09;;;;;;;125.22;38.58;;;-8.20;99.90;;;;;;4347929;28;661539;-63
2021/01/28 04:06:57;;;;;;;120.50;36.73;;;-8.30;99.90;;;;;;4368969;28;662349;-62
2021/01/28 04:09:44;;;;;;;127.78;35.63;;;-8.30;99.90;;;;;;4345783;28;662222;-62
2021/01/28 04:12:31;;;;;;;114.67;33.27;;;-8.40;99.90;;;;;;4364186;28;662641;-61
2021/01/28 04:15:18;;;;;;;108.13;31.37;;;-8.40;99.90;;;;;;4359112;28;662054;-61
2021/01/28 04:18:05;;;;;;;111.63;33.25;;;-8.50;99.90;;;;;;4334342;28;661416;-62
2021/01/28 04:20:52;;;;;;;100.47;32.07;;;-8.50;99.90;;;;;;4361646;28;662645;-61
2021/01/28 04:23:40;;;;;;;124.30;37.10;;;-8.50;99.90;;;;;;4347339;28;661407;-62
2021/01/28 04:26:27;;;;;;;132.27;37.07;;;-8.50;99.90;;;;;;4348039;28;662991;-62
2021/01/28 04:29:14;;;;;;;117.23;37.50;;;-8.50;99.90;;;;;;4352903;28;662375;-62
2021/01/28 04:32:01;;;;;;;118.03;37.43;;;-8.50;99.90;;;;;;4356844;28;662585;-61
2021/01/28 04:34:48;;;;;;;115.57;34.73;;;-8.60;99.90;;;;;;4367702;28;661750;-61
2021/01/28 04:37:35;;;;;;;127.70;35.83;;;-8.70;99.90;;;;;;4338152;28;662066;-62
2021/01/28 04:40:28;;;;;;;111.37;33.33;;;-8.70;99.90;;;;;;4369996;28;662754;-61
2021/01/28 04:43:20;;;;;;;110.53;32.47;;;-8.70;99.90;;;;;;4311517;28;663201;-62
2021/01/28 04:46:10;;;;;;;106.50;32.77;;;-8.70;99.90;;;;;;4344074;28;662836;-62
2021/01/28 04:48:57;;;;;;;95.37;28.90;;;-8.70;99.90;;;;;;4341015;28;662993;-61
2021/01/28 04:51:45;;;;;;;119.37;34.73;;;-8.60;99.90;;;;;;4364201;28;660504;-62
2021/01/28 04:54:35;;;;;;;104.70;31.03;;;-8.50;99.90;;;;;;4363708;28;662347;-62
2021/01/28 04:57:23;;;;;;;107.30;29.30;;;-8.60;99.90;;;;;;4341198;28;662461;-61
2021/01/28 05:00:11;;;;;;;108.73;30.87;;;-8.60;99.90;;;;;;4343220;28;661797;-61
2021/01/28 05:03:02;;;;;;;110.30;34.63;;;-8.70;99.90;;;;;;4352313;28;662172;-61
2021/01/28 05:05:50;;;;;;;116.25;33.60;;;-8.70;99.90;;;;;;4342101;28;661776;-63
2021/01/28 05:08:38;;;;;;;96.60;30.03;;;-8.60;99.90;;;;;;4360815;28;662656;-61
2021/01/28 05:11:26;;;;;;;112.67;30.77;;;-8.60;99.90;;;;;;4344439;28;660392;-61
2021/01/28 05:14:19;;;;;;;102.40;30.73;;;-8.60;99.90;;;;;;4364113;28;662500;-62
2021/01/28 05:17:06;;;;;;;109.07;32.37;;;-8.60;99.90;;;;;;4315421;28;662181;-61
2021/01/28 05:19:53;;;;;;;105.90;31.77;;;-8.60;99.90;;;;;;4365191;28;662735;-61
2021/01/28 05:22:44;;;;;;;103.83;32.57;;;-8.60;99.90;;;;;;4346103;28;661864;-62
2021/01/28 05:25:34;;;;;;;102.40;31.30;;;-8.60;99.90;;;;;;4336499;28;662139;-61
2021/01/28 05:28:30;;;;;;;100.47;31.43;;;-8.60;99.90;;;;;;4350074;28;662525;-61
2021/01/28 05:31:18;;;;;;;90.70;27.83;;;-8.60;99.90;;;;;;4319986;28;661815;-62
2021/01/28 05:34:07;;;;;;;113.87;31.40;;;-8.50;99.90;;;;;;4341667;28;661202;-61
2021/01/28 05:36:57;;;;;;;106.40;31.27;;;-8.50;99.90;;;;;;4353401;28;662288;-63
2021/01/28 05:39:44;;;;;;;112.80;33.37;;;-8.50;99.90;;;;;;4345058;28;662112;-62
2021/01/28 05:42:32;;;;;;;117.90;32.87;;;-8.30;99.90;;;;;;4363704;28;664560;-61
2021/01/28 05:45:24;;;;;;;107.63;32.57;;;-8.30;99.90;;;;;;4358560;28;661320;-62
2021/01/28 05:48:24;;;;;;;131.27;35.03;;;-8.40;99.90;;;;;;4343984;28;663843;-61
2021/01/28 05:51:14;;;;;;;105.85;30.00;;;-8.40;99.90;;;;;;4322480;28;662427;-62
2021/01/28 05:54:01;;;;;;;87.93;26.03;;;-8.50;99.90;;;;;;4342455;28;663008;-62
2021/01/28 05:56:55;;;;;;;96.50;29.07;;;-8.50;99.90;;;;;;4347017;28;660732;-62
2021/01/28 05:59:46;;;;;;;79.40;22.37;;;-8.40;99.90;;;;;;4323132;28;660904;-61
2021/01/28 06:03:05;;;;;;;86.90;28.23;;;-8.40;99.90;;;;;;4347683;28;660844;-61
2021/01/28 06:06:01;;;;;;;82.63;25.57;;;-8.50;99.90;;;;;;4357234;28;661597;-61
2021/01/28 06:09:18;;;;;;;60.57;17.07;;;-8.50;99.90;;;;;;4341430;28;660933;-61
2021/01/28 06:12:21;;;;;;;80.05;25.05;;;-8.40;99.90;;;;;;4327454;28;661732;-62
2021/01/28 06:15:20;;;;;;;101.37;27.13;;;-8.50;99.90;;;;;;4357192;28;660836;-61
2021/01/28 06:18:26;;;;;;;90.28;27.17;;;-8.50;99.90;;;;;;4326148;28;662347;-63
2021/01/28 06:21:34;;;;;;;83.13;25.60;;;-8.50;99.90;;;;;;4337179;28;660711;-61
2021/01/28 06:24:37;;;;;;;100.13;27.53;;;-8.60;99.90;;;;;;4316469;28;661076;-62
2021/01/28 06:27:36;;;;;;;104.00;30.07;;;-8.70;99.90;;;;;;4360400;28;661759;-63
2021/01/28 06:30:28;;;;;;;121.97;30.97;;;-8.70;99.90;;;;;;4323341;28;661611;-61
2021/01/28 06:33:30;;;;;;;115.30;32.45;;;-8.70;99.90;;;;;;4318345;28;662441;-62
2021/01/28 06:36:33;;;;;;;116.10;29.77;;;-8.70;99.90;;;;;;4360037;28;661979;-62
2021/01/28 06:39:23;;;;;;;99.65;26.10;;;-8.70;99.90;;;;;;4346418;28;661943;-62
2021/01/28 06:42:19;;;;;;;119.07;30.50;;;-8.60;99.90;;;;;;4343014;28;660781;-63
2021/01/28 06:45:10;;;;;;;98.33;28.47;;;-8.40;99.90;;;;;;4343689;28;662047;-61
2021/01/28 06:48:00;;;;;;;102.43;28.00;;;-8.30;99.90;;;;;;4343462;28;661158;-62
2021/01/28 06:50:51;;;;;;;83.13;24.47;;;-8.40;99.90;;;;;;4338697;28;663409;-60
2021/01/28 06:53:43;;;;;;;85.43;26.27;;;-8.40;99.90;;;;;;4343175;28;661696;-58
2021/01/28 06:56:32;;;;;;;95.23;29.10;;;-8.30;99.90;;;;;;4307823;28;662305;-59
2021/01/28 06:59:24;;;;;;;81.13;23.42;;;-8.20;99.90;;;;;;4355974;28;660629;-60
2021/01/28 07:02:14;;;;;;;84.57;24.80;;;-8.10;99.90;;;;;;4361035;28;662120;-58
2021/01/28 07:05:13;;;;;;;86.70;24.58;;;-7.90;99.90;;;;;;4368947;28;662186;-58
2021/01/28 07:08:03;;;;;;;103.53;28.03;;;-7.70;99.90;;;;;;4343103;28;662299;-59
2021/01/28 07:10:51;;;;;;;91.00;22.73;;;-7.60;99.90;;;;;;4338557;28;661859;-59
2021/01/28 07:13:39;;;;;;;121.10;30.40;;;-7.40;99.90;;;;;;4363604;28;661607;-59
2021/01/28 07:16:39;;;;;;;114.70;32.90;;;-7.20;99.90;;;;;;4348031;28;662245;-60
2021/01/28 07:19:28;;;;;;;96.77;26.70;;;-7.10;99.90;;;;;;4347862;28;662050;-60
2021/01/28 07:22:25;;;;;;;123.23;31.67;;;-6.80;99.90;;;;;;4335323;28;660556;-60
2021/01/28 07:25:25;;;;;;;186.60;42.05;;;-6.80;99.90;;;;;;4340919;28;662350;-59
2021/01/28 07:28:26;;;;;;;151.73;38.00;;;-6.60;99.90;;;;;;4336363;28;662432;-59
2021/01/28 07:31:42;;;;;;;175.10;39.07;;;-6.50;99.90;;;;;;4344000;28;661997;-59
2021/01/28 07:34:29;;;;;;;214.87;44.97;;;-6.30;99.90;;;;;;4315611;28;662084;-60
2021/01/28 07:37:27;;;;;;;174.93;41.97;;;-6.20;99.90;;;;;;4360960;28;663025;-59
2021/01/28 07:40:34;;;;;;;141.60;35.67;;;-5.90;99.90;;;;;;4322746;28;662050;-61
2021/01/28 07:43:25;;;;;;;93.57;25.93;;;-5.80;99.90;;;;;;4319245;28;662933;-59
2021/01/28 07:46:13;;;;;;;83.03;25.80;;;-5.60;99.90;;;;;;4343664;28;662526;-60
2021/01/28 07:49:12;;;;;;;73.23;25.13;;;-5.30;99.90;;;;;;4327200;28;660711;-59
2021/01/28 07:52:30;;;;;;;74.10;23.73;;;-4.90;99.90;;;;;;4304483;28;661782;-60
2021/01/28 07:55:38;;;;;;;70.93;20.07;;;-4.80;99.90;;;;;;4322659;28;661367;-58
2021/01/28 07:58:27;;;;;;;77.43;24.53;;;-4.50;99.90;;;;;;4299979;28;661342;-59
2021/01/28 08:01:14;;;;;;;61.37;21.17;;;-4.30;99.90;;;;;;4326871;28;662060;-60
2021/01/28 08:04:04;;;;;;;64.43;20.57;;;-4.10;99.90;;;;;;4352380;28;662139;-60
2021/01/28 08:06:51;;;;;;;71.33;22.90;;;-3.90;99.90;;;;;;4343899;28;661688;-60
2021/01/28 08:09:45;;;;;;;80.37;27.43;;;-3.70;99.90;;;;;;4358284;28;661487;-60
2021/01/28 08:12:34;;;;;;;69.27;20.80;;;-3.40;99.90;;;;;;4340862;28;661291;-60
2021/01/28 08:15:27;;;;;;;64.27;21.70;;;-3.10;99.90;;;;;;4353009;28;662824;-59
2021/01/28 08:18:19;;;;;;;75.67;22.47;;;-2.30;99.90;;;;;;4331890;28;661478;-60
2021/01/28 08:21:07;;;;;;;69.30;22.97;;;-1.60;99.90;;;;;;4335674;28;662716;-60
2021/01/28 08:23:55;;;;;;;73.20;24.23;;;-0.80;99.90;;;;;;4346310;28;660813;-62
2021/01/28 08:26:42;;;;;;;79.90;25.37;;;0.10;99.90;;;;;;4362700;28;661541;-60
2021/01/28 08:29:29;;;;;;;85.43;26.30;;;0.80;99.90;;;;;;4357562;28;659752;-61
2021/01/28 08:32:20;;;;;;;71.40;24.10;;;1.70;99.90;;;;;;4383446;28;660681;-60
2021/01/28 08:35:09;;;;;;;69.70;24.53;;;2.40;96.60;;;;;;4346215;28;660910;-60
2021/01/28 08:38:13;;;;;;;66.27;24.00;;;2.90;91.40;;;;;;4348978;28;660841;-61
2021/01/28 08:41:04;;;;;;;65.13;23.47;;;3.70;78.30;;;;;;4318843;28;660994;-61
2021/01/28 08:43:58;;;;;;;80.10;27.10;;;4.20;70.10;;;;;;4344194;28;660946;-61
2021/01/28 08:46:46;;;;;;;73.20;25.50;;;4.60;74.20;;;;;;4316909;28;660701;-61
2021/01/28 08:49:34;;;;;;;71.73;24.67;;;4.90;67.10;;;;;;4384671;28;659949;-60
2021/01/28 08:52:23;;;;;;;75.00;24.00;;;5.40;65.10;;;;;;4352777;28;660472;-60
2021/01/28 08:55:11;;;;;;;55.60;22.03;;;5.80;62.70;;;;;;4340938;28;659772;-61
2021/01/28 08:58:00;;;;;;;60.83;22.43;;;6.10;60.90;;;;;;4366114;28;659723;-60
2021/01/28 09:00:49;;;;;;;56.37;22.03;;;6.00;58.70;;;;;;4349971;28;660078;-60
2021/01/28 09:03:40;;;;;;;70.67;24.30;;;5.50;58.50;;;;;;4347649;28;661315;-61
2021/01/28 09:06:28;;;;;;;66.93;24.57;;;5.20;57.80;;;;;;4348375;28;660659;-61
2021/01/28 09:09:18;;;;;;;59.97;25.10;;;4.50;59.70;;;;;;4350463;28;660593;-61
2021/01/28 09:12:22;;;;;;;55.50;22.37;;;4.30;61.00;;;;;;4352408;28;660337;-61
2021/01/28 09:15:10;;;;;;;67.75;25.08;;;4.20;60.30;;;;;;4315998;28;660402;-62
2021/01/28 09:18:04;;;;;;;76.00;27.33;;;3.90;63.00;;;;;;4364648;28;660923;-61
2021/01/28 09:20:51;;;;;;;74.20;29.47;;;3.70;63.30;;;;;;4321077;28;660514;-60
2021/01/28 09:23:53;;;;;;;82.33;31.13;;;3.70;64.00;;;;;;4377618;28;660483;-60
2021/01/28 09:26:41;;;;;;;72.93;22.70;;;3.40;64.50;;;;;;4322350;28;661171;-60
2021/01/28 09:29:32;;;;;;;19.37;7.53;;;3.40;64.60;;;;;;4358509;28;660032;-60
2021/01/28 09:32:29;;;;;;;37.57;12.67;;;3.00;62.90;;;;;;4326017;28;658721;-60
2021/01/28 09:35:20;;;;;;;33.53;12.43;;;2.50;65.00;;;;;;4321302;28;660874;-59
2021/01/28 09:38:12;;;;;;;21.93;7.17;;;2.30;66.80;;;;;;4339256;28;660260;-59
2021/01/28 09:41:11;;;;;;;22.43;8.93;;;1.80;67.10;;;;;;4327853;28;658906;-60
2021/01/28 09:44:31;;;;;;;30.20;11.60;;;1.40;68.40;;;;;;4324746;28;659309;-59
2021/01/28 09:47:20;;;;;;;28.77;12.40;;;1.20;69.70;;;;;;4341348;28;660874;-59
2021/01/28 09:50:08;;;;;;;23.10;6.77;;;1.10;70.70;;;;;;4346349;28;661152;-59
2021/01/28 09:52:56;;;;;;;31.50;11.20;;;1.30;71.00;;;;;;4347061;28;659589;-59
2021/01/28 09:55:43;;;;;;;14.87;6.23;;;1.10;70.90;;;;;;4362156;28;660230;-61
2021/01/28 09:58:30;;;;;;;22.70;8.30;;;1.20;71.50;;;;;;4344234;28;659221;-61
2021/01/28 10:01:17;;;;;;;24.90;9.67;;;1.80;72.20;;;;;;4367284;28;660492;-60
2021/01/28 10:04:05;;;;;;;6.80;3.77;;;2.20;69.20;;;;;;4343787;28;659133;-60
2021/01/28 10:06:52;;;;;;;19.70;8.37;;;2.10;66.80;;;;;;4361371;28;659351;-60
2021/01/28 10:09:39;;;;;;;32.77;12.57;;;2.10;68.70;;;;;;4371651;28;658616;-62
2021/01/28 10:12:26;;;;;;;28.87;12.40;;;2.30;68.10;;;;;;4386934;28;659895;-59
2021/01/28 10:15:15;;;;;;;33.57;14.53;;;2.10;67.40;;;;;;4385538;28;659758;-60
2021/01/28 10:18:02;;;;;;;27.83;11.10;;;2.30;68.10;;;;;;4358671;28;660269;-60
2021/01/28 10:20:49;;;;;;;30.27;12.43;;;2.30;66.80;;;;;;4351832;28;659609;-62
2021/01/28 10:23:36;;;;;;;32.25;12.07;;;2.90;67.30;;;;;;4375357;28;659980;-59
2021/01/28 10:26:23;;;;;;;26.67;8.90;;;3.00;65.90;;;;;;4354653;28;659900;-60
2021/01/28 10:29:10;;;;;;;29.00;9.00;;;3.30;65.00;;;;;;4360868;28;658668;-60
2021/01/28 10:31:58;;;;;;;18.87;6.30;;;2.80;65.90;;;;;;4359418;28;659394;-60
2021/01/28 10:34:45;;;;;;;20.73;7.13;;;3.00;67.10;;;;;;4345009;28;658661;-59
2021/01/28 10:37:33;;;;;;;41.20;13.70;;;3.50;65.00;;;;;;4365281;28;659197;-60
2021/01/28 10:40:20;;;;;;;42.00;14.73;;;3.80;65.00;;;;;;4347783;28;660317;-60
2021/01/28 10:43:07;;;;;;;26.57;10.23;;;4.20;64.60;;;;;;4365928;28;661083;-60
2021/01/28 10:45:54;;;;;;;36.87;14.50;;;4.50;62.10;;;;;;4351692;28;660250;-59
2021/01/28 10:48:46;;;;;;;18.10;8.03;;;3.50;64.20;;;;;;4367383;28;660895;-60
2021/01/28 10:51:33;;;;;;;38.07;11.83;;;2.30;70.30;;;;;;4327075;28;658747;-59
2021/01/28 10:54:20;;;;;;;30.73;12.03;;;2.00;72.80;;;;;;4333045;28;661031;-60
2021/01/28 10:57:07;;;;;;;34.90;9.50;;;1.90;75.20;;;;;;4366459;28;661682;-60
2021/01/28 10:59:54;;;;;;;40.70;13.87;;;2.30;76.00;;;;;;4344729;28;658664;-61
2021/01/28 11:02:42;;;;;;;30.10;11.70;;;2.40;74.00;;;;;;4361371;28;661588;-59
2021/01/28 11:05:31;;;;;;;38.40;15.10;;;2.10;74.80;;;;;;4354575;28;659247;-61
2021/01/28 11:08:18;;;;;;;27.03;9.87;;;2.50;74.50;;;;;;4372877;28;660014;-60
2021/01/28 11:11:05;;;;;;;39.30;14.67;;;3.30;71.60;;;;;;4358715;28;659476;-59
2021/01/28 11:13:54;;;;;;;31.53;11.70;;;3.70;69.30;;;;;;4371015;28;660114;-60
2021/01/28 11:16:42;;;;;;;26.87;10.07;;;4.40;66.40;;;;;;4331932;28;661431;-59
2021/01/28 11:19:29;;;;;;;31.30;10.67;;;4.60;67.00;;;;;;4367674;28;659442;-62
2021/01/28 11:22:17;;;;;;;25.80;10.87;;;4.90;64.10;;;;;;4366779;28;659594;-59
2021/01/28 11:25:06;;;;;;;41.70;14.10;;;4.40;65.10;;;;;;4328781;28;659864;-62
2021/01/28 11:27:53;;;;;;;30.77;11.20;;;4.20;66.90;;;;;;4363244;28;661039;-60
2021/01/28 11:30:40;;;;;;;25.58;9.05;;;4.60;66.40;;;;;;4337701;28;659644;-59
2021/01/28 11:33:27;;;;;;;31.87;13.40;;;4.90;64.60;;;;;;4366333;28;659795;-59
2021/01/28 11:36:14;;;;;;;41.75;13.80;;;4.80;64.20;;;;;;4358779;28;659659;-61
2021/01/28 11:39:02;;;;;;;27.13;11.15;;;5.30;64.40;;;;;;4352577;28;660739;-59
2021/01/28 11:41:49;;;;;;;31.93;10.30;;;5.70;63.00;;;;;;4348262;28;659665;-61
2021/01/28 11:44:36;;;;;;;20.05;7.35;;;5.30;64.20;;;;;;4366933;28;659998;-60
2021/01/28 11:47:30;;;;;;;25.90;11.33;;;5.30;65.00;;;;;;4374910;28;658860;-60
2021/01/28 11:50:17;;;;;;;28.37;11.20;;;5.80;64.60;;;;;;4343648;28;659958;-59
2021/01/28 11:53:04;;;;;;;22.97;8.23;;;6.40;60.80;;;;;;4333794;28;660716;-61
2021/01/28 11:55:52;;;;;;;25.43;10.50;;;5.70;62.90;;;;;;4357487;28;658608;-59
2021/01/28 11:58:41;;;;;;;39.58;13.63;;;4.50;66.20;;;;;;4330298;28;661090;-61
2021/01/28 12:01:28;;;;;;;17.43;6.93;;;3.60;69.90;;;;;;4356710;28;660153;-59
2021/01/28 12:04:15;;;;;;;33.17;12.90;;;3.50;73.70;;;;;;4342319;28;658336;-60
2021/01/28 12:07:02;;;;;;;33.80;12.87;;;3.30;74.70;;;;;;4368705;28;660266;-59
2021/01/28 12:09:49;;;;;;;19.87;8.47;;;2.90;77.70;;;;;;4351375;28;660247;-60
2021/01/28 12:12:38;;;;;;;18.03;6.90;;;2.90;79.90;;;;;;4366239;28;659755;-61
2021/01/28 12:15:25;;;;;;;16.17;6.87;;;2.80;81.00;;;;;;4344196;28;658217;-61
2021/01/28 12:18:12;;;;;;;26.97;10.47;;;2.30;88.50;;;;;;4378599;28;660934;-60
2021/01/28 12:20:59;;;;;;;16.07;7.23;;;2.00;93.20;;;;;;4358436;28;659472;-61
2021/01/28 12:23:46;;;;;;;11.70;4.83;;;2.10;95.60;;;;;;4369136;28;658925;-59
2021/01/28 12:26:33;;;;;;;12.13;6.27;;;2.10;96.40;;;;;;4367173;28;658374;-59
2021/01/28 12:29:21;;;;;;;17.23;6.53;;;1.90;99.90;;;;;;4349439;28;658760;-59
2021/01/28 12:32:08;;;;;;;20.40;4.80;;;1.80;99.90;;;;;;4367200;28;658434;-60
2021/01/28 12:34:55;;;;;;;14.57;6.00;;;1.60;99.90;;;;;;4348813;28;658623;-59
2021/01/28 12:37:42;;;;;;;19.73;7.97;;;1.60;99.90;;;;;;4358826;28;659763;-59
2021/01/28 12:40:29;;;;;;;19.67;7.23;;;1.40;99.90;;;;;;4353513;28;658931;-60
2021/01/28 12:43:16;;;;;;;15.10;6.27;;;1.50;99.90;;;;;;4370888;28;660528;-60
2021/01/28 12:46:04;;;;;;;17.77;6.37;;;1.50;99.90;;;;;;4363710;28;659708;-59
2021/01/28 12:48:51;;;;;;;20.90;8.03;;;1.70;99.90;;;;;;4351085;28;660298;-60
2021/01/28 12:51:38;;;;;;;23.57;6.20;;;1.80;99.90;;;;;;4376277;28;659025;-58
2021/01/28 12:54:25;;;;;;;17.90;7.57;;;1.70;99.90;;;;;;4353082;28;658669;-59
2021/01/28 12:57:12;;;;;;;21.97;8.37;;;1.70;99.90;;;;;;4370985;28;660351;-60
2021/01/28 12:59:59;;;;;;;20.80;8.10;;;1.70;99.90;;;;;;4357768;28;658380;-59
2021/01/28 13:02:47;;;;;;;17.77;7.27;;;1.80;99.90;;;;;;4366404;28;659353;-59
2021/01/28 13:05:34;;;;;;;17.33;7.83;;;1.70;99.90;;;;;;4363484;28;658623;-61
2021/01/28 13:08:21;;;;;;;27.65;11.50;;;1.40;99.90;;;;;;4367017;28;658359;-59
2021/01/28 13:11:08;;;;;;;26.02;11.20;;;1.40;99.90;;;;;;4356114;28;660267;-59
2021/01/28 13:13:55;;;;;;;15.87;4.97;;;1.60;99.90;;;;;;4349261;28;660918;-59
2021/01/28 13:16:42;;;;;;;22.33;9.17;;;1.60;99.90;;;;;;4370010;28;659859;-60
2021/01/28 13:19:30;;;;;;;29.30;11.00;;;1.60;99.90;;;;;;4351877;28;659101;-59
2021/01/28 13:22:17;;;;;;;19.25;8.10;;;1.60;99.90;;;;;;4370279;28;661113;-59
2021/01/28 13:25:05;;;;;;;21.45;9.20;;;1.70;99.90;;;;;;4345507;28;658758;-61
2021/01/28 13:27:53;;;;;;;20.67;8.23;;;1.70;99.90;;;;;;4370796;28;659786;-60
2021/01/28 13:30:40;;;;;;;13.93;6.13;;;1.60;99.90;;;;;;4351077;28;658702;-60
2021/01/28 13:33:27;;;;;;;19.37;8.40;;;1.70;99.90;;;;;;4360432;28;659971;-59
2021/01/28 13:36:15;;;;;;;15.17;6.20;;;1.60;99.90;;;;;;4368238;28;658835;-60
2021/01/28 13:39:02;;;;;;;24.57;10.90;;;1.60;99.90;;;;;;4368525;28;659971;-60
2021/01/28 13:41:49;;;;;;;17.40;8.18;;;1.60;99.90;;;;;;4333030;28;659802;-60
2021/01/28 13:44:36;;;;;;;33.80;14.60;;;1.60;99.90;;;;;;4353419;28;659744;-60
2021/01/28 13:47:23;;;;;;;34.90;14.70;;;1.70;99.90;;;;;;4371082;28;659645;-60
2021/01/28 13:50:12;;;;;;;26.13;11.80;;;1.60;99.90;;;;;;4351567;28;659701;-60
2021/01/28 13:53:00;;;;;;;33.40;13.60;;;1.70;99.90;;;;;;4370305;28;659420;-61
2021/01/28 13:55:48;;;;;;;23.57;9.90;;;1.60;99.90;;;;;;4363760;28;660769;-59
2021/01/28 13:58:35;;;;;;;29.80;13.10;;;1.50;99.90;;;;;;4345771;28;659381;-60
2021/01/28 14:01:22;;;;;;;19.50;7.87;;;1.50;99.90;;;;;;4372994;28;661442;-60
2021/01/28 14:04:09;;;;;;;19.37;8.63;;;1.60;99.90;;;;;;4360883;28;658811;-60
2021/01/28 14:06:56;;;;;;;21.47;7.87;;;1.80;99.90;;;;;;4357779;28;658663;-60
2021/01/28 14:09:44;;;;;;;22.03;8.47;;;1.80;99.90;;;;;;4368706;28;658764;-59